createdAt,value
2023-04-21T00:00:32.509Z,9.80
2023-04-21T00:03:22.166Z,9.80
2023-04-21T00:06:09.360Z,9.80
2023-04-21T00:08:55.001Z,9.80
2023-04-21T00:11:43.574Z,9.80
2023-04-21T00:14:29.397Z,9.70
2023-04-21T00:17:14.630Z,9.70
2023-04-21T00:20:00.279Z,9.70
2023-04-21T00:22:45.993Z,9.70
2023-04-21T00:25:31.398Z,9.70
2023-04-21T00:28:18.832Z,9.60
2023-04-21T00:31:07.015Z,9.60
2023-04-21T00:33:52.065Z,9.60
2023-04-21T00:36:40.414Z,9.60
2023-04-21T00:39:25.862Z,9.60
2023-04-21T00:42:11.262Z,9.60
2023-04-21T00:44:56.802Z,9.60
2023-04-21T00:47:43.319Z,9.60
2023-04-21T00:50:30.438Z,9.60
2023-04-21T00:53:16.051Z,9.60
2023-04-21T00:56:04.873Z,9.70
2023-04-21T00:58:51.211Z,9.60
2023-04-21T01:01:37.262Z,9.60
2023-04-21T01:04:23.242Z,9.60
2023-04-21T01:07:10.022Z,9.60
2023-04-21T01:09:55.318Z,9.60
2023-04-21T01:12:46.046Z,9.60
2023-04-21T01:15:31.323Z,9.60
2023-04-21T01:18:18.164Z,9.60
2023-04-21T01:21:07.446Z,9.60
2023-04-21T01:23:53.974Z,9.60
2023-04-21T01:26:44.880Z,9.60
2023-04-21T01:29:34.862Z,9.60
2023-04-21T01:32:31.525Z,9.60
2023-04-21T01:35:17.210Z,9.60
2023-04-21T01:38:02.560Z,9.60
2023-04-21T01:40:52.463Z,9.60
2023-04-21T01:43:39.788Z,9.60
2023-04-21T01:46:25.574Z,9.60
2023-04-21T01:49:10.820Z,9.60
2023-04-21T01:51:56.424Z,9.70
2023-04-21T01:54:41.961Z,9.70
2023-04-21T01:57:27.354Z,9.70
2023-04-21T02:00:13.528Z,9.80
2023-04-21T02:03:03.438Z,9.80
2023-04-21T02:05:52.034Z,9.80
2023-04-21T02:08:37.583Z,9.80
2023-04-21T02:11:24.989Z,9.80
2023-04-21T02:14:10.286Z,9.80
2023-04-21T02:16:56.306Z,9.80
2023-04-21T02:19:41.753Z,9.80
2023-04-21T02:22:27.339Z,9.80
2023-04-21T02:25:13.767Z,9.90
2023-04-21T02:28:01.814Z,9.90
2023-04-21T02:30:47.347Z,9.90
2023-04-21T02:33:32.556Z,9.90
2023-04-21T02:36:17.934Z,9.90
2023-04-21T02:39:04.132Z,9.90
2023-04-21T02:41:50.742Z,10.00
2023-04-21T02:44:39.403Z,9.90
2023-04-21T02:47:26.143Z,9.90
2023-04-21T02:50:13.885Z,9.80
2023-04-21T02:52:59.109Z,9.80
2023-04-21T02:55:44.471Z,9.80
2023-04-21T02:58:29.659Z,9.80
2023-04-21T03:01:15.037Z,9.80
2023-04-21T03:04:00.656Z,9.80
2023-04-21T03:06:45.979Z,9.80
2023-04-21T03:09:31.298Z,9.80
2023-04-21T03:12:18.187Z,9.80
2023-04-21T03:15:04.158Z,9.80
2023-04-21T03:17:49.791Z,9.80
2023-04-21T03:20:35.983Z,9.80
2023-04-21T03:23:21.525Z,9.90
2023-04-21T03:26:11.779Z,9.80
2023-04-21T03:28:57.212Z,9.80
2023-04-21T03:31:42.938Z,9.70
2023-04-21T03:34:28.298Z,9.70
2023-04-21T03:37:15.348Z,9.70
2023-04-21T03:40:01.223Z,9.70
2023-04-21T03:42:46.947Z,9.70
2023-04-21T03:45:32.507Z,9.70
2023-04-21T03:48:18.173Z,9.70
2023-04-21T03:51:03.733Z,9.70
2023-04-21T03:53:49.219Z,9.70
2023-04-21T03:56:37.220Z,9.60
2023-04-21T03:59:22.556Z,9.60
2023-04-21T04:02:08.642Z,9.60
2023-04-21T04:04:54.029Z,9.60
2023-04-21T04:07:39.396Z,9.60
2023-04-21T04:10:25.321Z,9.60
2023-04-21T04:13:11.753Z,9.60
2023-04-21T04:15:58.606Z,9.70
2023-04-21T04:18:45.818Z,9.70
2023-04-21T04:21:32.692Z,9.70
2023-04-21T04:24:18.308Z,9.70
2023-04-21T04:27:03.735Z,9.70
2023-04-21T04:29:50.672Z,9.70
2023-04-21T04:32:43.063Z,9.70
2023-04-21T04:35:28.456Z,9.70
2023-04-21T04:38:17.031Z,9.70
2023-04-21T04:41:05.140Z,9.70
2023-04-21T04:43:51.034Z,9.70
2023-04-21T04:46:36.494Z,9.70
2023-04-21T04:49:23.954Z,9.70
2023-04-21T04:52:09.489Z,9.60
2023-04-21T04:54:57.689Z,9.60
2023-04-21T04:57:45.680Z,9.70
2023-04-21T05:00:31.812Z,9.70
2023-04-21T05:03:17.129Z,9.80
2023-04-21T05:06:02.562Z,9.80
2023-04-21T05:08:47.761Z,9.90
2023-04-21T05:11:33.130Z,9.90
2023-04-21T05:14:18.679Z,10.00
2023-04-21T05:17:04.240Z,10.00
2023-04-21T05:19:52.177Z,10.00
2023-04-21T05:22:41.048Z,10.00
2023-04-21T05:25:26.568Z,10.10
2023-04-21T05:28:11.885Z,10.10
2023-04-21T05:30:57.250Z,10.10
2023-04-21T05:33:54.889Z,10.30
2023-04-21T05:36:46.157Z,10.30
2023-04-21T05:39:31.839Z,10.40
2023-04-21T05:42:18.337Z,10.40
2023-04-21T05:45:04.078Z,10.50
2023-04-21T05:47:49.742Z,10.50
2023-04-21T05:50:38.618Z,10.50
2023-04-21T05:53:28.878Z,10.50
2023-04-21T05:56:14.532Z,10.60
2023-04-21T05:58:59.793Z,10.60
2023-04-21T06:01:45.183Z,10.60
2023-04-21T06:04:30.515Z,10.60
2023-04-21T06:07:18.866Z,10.70
2023-04-21T06:10:09.402Z,10.80
2023-04-21T06:12:55.145Z,10.90
2023-04-21T06:15:40.578Z,11.00
2023-04-21T06:18:27.763Z,11.00
2023-04-21T06:21:13.116Z,11.10
2023-04-21T06:23:58.669Z,11.10
2023-04-21T06:26:44.005Z,11.10
2023-04-21T06:29:29.801Z,11.20
2023-04-21T06:32:15.511Z,11.20
2023-04-21T06:35:01.167Z,11.30
2023-04-21T06:37:47.288Z,11.40
2023-04-21T06:40:33.928Z,11.60
2023-04-21T06:43:19.177Z,11.70
2023-04-21T06:46:04.556Z,11.80
2023-04-21T06:49:00.422Z,11.90
2023-04-21T06:51:46.399Z,12.00
2023-04-21T06:54:31.931Z,12.10
2023-04-21T06:57:17.746Z,12.20
2023-04-21T07:00:05.644Z,12.30
2023-04-21T07:02:51.321Z,12.40
2023-04-21T07:05:39.977Z,12.40
2023-04-21T07:08:25.704Z,12.40
2023-04-21T07:11:10.986Z,12.30
2023-04-21T07:13:58.552Z,12.30
2023-04-21T07:16:44.195Z,12.30
2023-04-21T07:19:29.843Z,12.30
2023-04-21T07:22:15.472Z,12.40
2023-04-21T07:25:01.151Z,12.40
2023-04-21T07:27:46.911Z,12.60
2023-04-21T07:30:32.175Z,12.70
2023-04-21T07:33:17.872Z,12.70
2023-04-21T07:36:03.407Z,12.80
2023-04-21T07:38:48.993Z,12.90
2023-04-21T07:41:34.641Z,12.90
2023-04-21T07:44:20.037Z,13.10
2023-04-21T07:47:05.823Z,13.20
2023-04-21T07:49:51.267Z,13.20
2023-04-21T07:52:39.709Z,13.40
2023-04-21T07:55:25.332Z,13.50
2023-04-21T07:58:10.882Z,13.50
2023-04-21T08:00:56.366Z,13.50
2023-04-21T08:03:42.122Z,13.60
2023-04-21T08:06:28.124Z,13.70
2023-04-21T08:09:13.900Z,13.80
2023-04-21T08:11:59.100Z,13.80
2023-04-21T08:14:44.774Z,13.90
2023-04-21T08:17:30.667Z,14.00
2023-04-21T08:20:15.951Z,14.20
2023-04-21T08:23:01.273Z,14.30
2023-04-21T08:25:46.608Z,14.40
2023-04-21T08:28:32.329Z,14.50
2023-04-21T08:31:19.752Z,14.50
2023-04-21T08:34:05.661Z,14.50
2023-04-21T08:36:51.324Z,14.60
2023-04-21T08:39:36.522Z,14.70
2023-04-21T08:42:21.909Z,14.90
2023-04-21T08:45:07.968Z,15.00
2023-04-21T08:48:00.457Z,15.00
2023-04-21T08:50:48.512Z,15.10
2023-04-21T08:53:37.070Z,15.30
2023-04-21T08:56:24.247Z,15.50
2023-04-21T08:59:10.067Z,15.50
2023-04-21T09:02:12.159Z,15.40
2023-04-21T09:05:00.005Z,15.30
2023-04-21T09:07:45.953Z,15.50
2023-04-21T09:10:31.476Z,15.60
2023-04-21T09:13:19.371Z,15.70
2023-04-21T09:16:14.760Z,15.80
2023-04-21T09:19:04.892Z,15.70
2023-04-21T09:21:50.619Z,15.70
2023-04-21T09:24:35.670Z,15.80
2023-04-21T09:27:21.650Z,15.80
2023-04-21T09:30:08.164Z,15.80
2023-04-21T09:33:00.237Z,15.80
2023-04-21T09:35:46.635Z,15.90
2023-04-21T09:38:34.653Z,15.90
2023-04-21T09:41:20.534Z,15.90
2023-04-21T09:44:06.305Z,15.90
2023-04-21T09:46:58.332Z,16.00
2023-04-21T09:49:45.019Z,16.20
2023-04-21T09:52:34.048Z,16.40
2023-04-21T09:55:27.227Z,16.60
2023-04-21T09:58:15.723Z,16.80
2023-04-21T10:01:01.392Z,16.90
2023-04-21T10:03:49.333Z,17.00
2023-04-21T10:06:38.720Z,17.20
2023-04-21T10:09:27.588Z,17.40
2023-04-21T10:12:14.445Z,17.40
2023-04-21T10:15:05.367Z,17.50
2023-04-21T10:17:53.545Z,17.70
2023-04-21T10:20:50.953Z,17.80
2023-04-21T10:23:37.915Z,17.90
2023-04-21T10:26:29.703Z,18.10
2023-04-21T10:29:16.228Z,18.30
2023-04-21T10:32:03.332Z,18.30
2023-04-21T10:34:49.500Z,18.40
2023-04-21T10:37:38.716Z,18.60
2023-04-21T10:40:42.990Z,18.70
2023-04-21T10:43:59.360Z,18.90
2023-04-21T10:46:52.532Z,19.20
2023-04-21T10:49:39.719Z,19.30
2023-04-21T10:52:34.132Z,19.30
2023-04-21T10:55:25.362Z,19.40
2023-04-21T10:58:10.661Z,19.50
2023-04-21T11:00:56.914Z,19.60
2023-04-21T11:03:45.851Z,19.70
2023-04-21T11:06:32.817Z,20.00
2023-04-21T11:09:18.026Z,20.30
2023-04-21T11:12:07.418Z,20.60
2023-04-21T11:14:53.931Z,21.10
2023-04-21T11:17:43.792Z,21.30
2023-04-21T11:20:29.288Z,21.40
2023-04-21T11:23:18.877Z,21.50
2023-04-21T11:26:04.128Z,21.90
2023-04-21T11:28:50.227Z,22.50
2023-04-21T11:31:39.503Z,22.60
2023-04-21T11:34:27.892Z,22.90
2023-04-21T11:37:22.104Z,22.80
2023-04-21T11:40:08.445Z,23.10
2023-04-21T11:42:54.895Z,23.60
2023-04-21T11:45:51.056Z,24.10
2023-04-21T11:48:36.796Z,24.50
2023-04-21T11:51:22.497Z,25.60
2023-04-21T11:54:12.702Z,26.00
2023-04-21T11:56:57.928Z,26.60
2023-04-21T11:59:46.793Z,27.30
2023-04-21T12:02:36.637Z,28.50
2023-04-21T12:05:22.777Z,28.10
2023-04-21T12:08:14.916Z,28.90
2023-04-21T12:11:02.089Z,29.40
2023-04-21T12:13:47.579Z,30.20
2023-04-21T12:16:33.270Z,30.40
2023-04-21T12:19:39.701Z,30.20
2023-04-21T12:22:24.940Z,29.30
2023-04-21T12:25:10.431Z,29.60
2023-04-21T12:28:02.706Z,30.50
2023-04-21T12:30:48.127Z,31.70
2023-04-21T12:33:33.593Z,31.80
2023-04-21T12:36:19.083Z,31.20
2023-04-21T12:39:04.286Z,31.00
2023-04-21T12:41:49.754Z,31.90
2023-04-21T12:44:35.335Z,32.30
2023-04-21T12:47:20.855Z,32.70
2023-04-21T12:50:06.947Z,33.60
2023-04-21T12:52:57.750Z,34.20
2023-04-21T12:55:49.938Z,35.00
2023-04-21T12:58:48.265Z,35.80
2023-04-21T13:01:33.574Z,36.40
2023-04-21T13:04:19.329Z,36.70
2023-04-21T13:07:04.909Z,37.60
2023-04-21T13:09:49.859Z,36.70
2023-04-21T13:12:35.615Z,35.90
2023-04-21T13:15:20.871Z,36.20
2023-04-21T13:18:06.575Z,35.60
2023-04-21T13:20:52.058Z,35.90
2023-04-21T13:23:37.456Z,37.10
2023-04-21T13:26:22.861Z,38.20
2023-04-21T13:29:08.025Z,38.70
2023-04-21T13:31:53.632Z,39.20
2023-04-21T13:34:39.176Z,38.20
2023-04-21T13:37:24.461Z,36.10
2023-04-21T13:40:10.835Z,34.50
2023-04-21T13:42:58.664Z,33.10
2023-04-21T13:45:48.243Z,32.30
2023-04-21T13:48:33.727Z,31.40
2023-04-21T13:51:20.553Z,30.20
2023-04-21T13:54:05.986Z,29.30
2023-04-21T13:56:51.896Z,28.40
2023-04-21T13:59:36.920Z,28.30
2023-04-21T14:02:28.236Z,29.40
2023-04-21T14:05:13.959Z,30.70
2023-04-21T14:08:00.418Z,30.40
2023-04-21T14:10:45.599Z,29.30
2023-04-21T14:16:20.010Z,30.10
2023-04-21T14:19:05.532Z,31.90
2023-04-21T14:21:51.108Z,31.60
2023-04-21T14:24:36.497Z,31.00
2023-04-21T14:27:21.980Z,30.70
2023-04-21T14:30:08.205Z,32.10
2023-04-21T14:32:53.208Z,34.20
2023-04-21T14:35:38.588Z,35.60
2023-04-21T14:38:24.454Z,37.10
2023-04-21T14:41:13.031Z,36.30
2023-04-21T14:44:03.190Z,34.60
2023-04-21T14:47:00.940Z,35.20
2023-04-21T14:49:54.654Z,35.70
2023-04-21T14:52:40.834Z,37.10
2023-04-21T14:55:26.134Z,37.70
2023-04-21T14:58:17.448Z,38.70
2023-04-21T15:01:02.444Z,39.70
2023-04-21T15:03:47.994Z,39.90
2023-04-21T15:06:33.156Z,39.50
2023-04-21T15:09:19.448Z,38.20
2023-04-21T15:12:05.762Z,36.80
2023-04-21T15:14:52.442Z,35.50
2023-04-21T15:17:37.847Z,34.70
2023-04-21T15:20:36.528Z,34.00
2023-04-21T15:23:29.162Z,34.50
2023-04-21T15:26:14.405Z,33.50
2023-04-21T15:29:00.213Z,32.20
2023-04-21T15:31:45.641Z,31.10
2023-04-21T15:34:33.525Z,30.20
2023-04-21T15:37:20.004Z,29.50
2023-04-21T15:40:06.261Z,28.90
2023-04-21T15:42:51.468Z,28.90
2023-04-21T15:45:37.058Z,29.90
2023-04-21T15:48:22.537Z,31.00
2023-04-21T15:51:12.673Z,30.50
2023-04-21T15:53:58.318Z,30.20
2023-04-21T15:56:43.499Z,29.90
2023-04-21T15:59:28.950Z,31.90
2023-04-21T16:02:14.756Z,33.90
2023-04-21T16:05:00.996Z,34.60
2023-04-21T16:07:46.764Z,35.10
2023-04-21T16:10:32.191Z,35.00
2023-04-21T16:13:18.935Z,34.80
2023-04-21T16:16:04.455Z,35.50
2023-04-21T16:18:49.753Z,35.30
2023-04-21T16:21:36.274Z,34.40
2023-04-21T16:24:21.832Z,34.90
2023-04-21T16:27:07.345Z,35.60
2023-04-21T16:29:52.905Z,36.20
2023-04-21T16:32:38.350Z,36.30
2023-04-21T16:35:26.812Z,35.50
2023-04-21T16:38:12.409Z,34.60
2023-04-21T16:40:57.498Z,34.60
2023-04-21T16:43:43.237Z,35.20
2023-04-21T16:46:28.544Z,35.60
2023-04-21T16:49:14.029Z,35.10
2023-04-21T16:51:59.677Z,34.10
2023-04-21T16:54:44.818Z,33.10
2023-04-21T16:57:31.170Z,32.70
2023-04-21T17:00:19.062Z,32.50
2023-04-21T17:03:04.788Z,32.10
2023-04-21T17:05:50.744Z,31.80
2023-04-21T17:08:36.668Z,30.90
2023-04-21T17:11:21.972Z,30.00
2023-04-21T17:14:07.294Z,29.00
2023-04-21T17:16:54.087Z,27.90
2023-04-21T17:19:40.698Z,27.00
2023-04-21T17:22:26.230Z,26.30
2023-04-21T17:25:12.035Z,25.50
2023-04-21T17:27:58.396Z,24.90
2023-04-21T17:30:43.932Z,24.40
2023-04-21T17:33:29.605Z,23.90
2023-04-21T17:36:16.936Z,23.50
2023-04-21T17:39:02.768Z,23.00
2023-04-21T17:41:49.365Z,22.60
2023-04-21T17:44:35.509Z,22.20
2023-04-21T17:47:22.586Z,21.80
2023-04-21T17:50:09.980Z,21.50
2023-04-21T17:52:55.942Z,21.10
2023-04-21T17:55:41.568Z,20.90
2023-04-21T17:58:27.709Z,20.70
2023-04-21T18:01:17.485Z,20.50
2023-04-21T18:04:04.605Z,20.30
2023-04-21T18:06:51.338Z,20.10
2023-04-21T18:09:36.952Z,19.90
2023-04-21T18:12:22.473Z,19.80
2023-04-21T18:15:08.808Z,19.60
2023-04-21T18:17:54.609Z,19.50
2023-04-21T18:20:40.673Z,19.40
2023-04-21T18:23:29.149Z,19.30
2023-04-21T18:26:14.528Z,19.10
2023-04-21T18:29:00.060Z,18.00
2023-04-21T18:31:45.660Z,16.60
2023-04-21T18:34:31.350Z,14.40
2023-04-21T18:37:17.714Z,13.20
2023-04-21T18:40:05.947Z,12.40
2023-04-21T18:42:51.802Z,12.00
2023-04-21T18:45:38.579Z,11.80
2023-04-21T18:48:24.072Z,11.70
2023-04-21T18:51:09.726Z,11.60
2023-04-21T18:53:55.779Z,11.50
2023-04-21T18:56:41.735Z,11.40
2023-04-21T18:59:27.172Z,11.50
2023-04-21T19:02:13.774Z,11.40
2023-04-21T19:04:59.571Z,11.40
2023-04-21T19:07:45.248Z,11.40
2023-04-21T19:10:34.197Z,11.40
2023-04-21T19:13:22.531Z,11.30
2023-04-21T19:16:12.500Z,11.30
2023-04-21T19:18:59.678Z,11.20
2023-04-21T19:21:45.394Z,11.20
2023-04-21T19:24:37.176Z,11.10
2023-04-21T19:27:22.795Z,11.10
2023-04-21T19:30:09.147Z,11.20
2023-04-21T19:32:55.238Z,11.20
2023-04-21T19:35:41.335Z,11.20
2023-04-21T19:38:28.346Z,11.20
2023-04-21T19:41:13.635Z,11.10
2023-04-21T19:43:59.537Z,11.10
2023-04-21T19:46:49.559Z,11.10
2023-04-21T19:49:35.261Z,11.10
2023-04-21T19:52:20.568Z,11.10
2023-04-21T19:55:06.887Z,11.00
2023-04-21T19:57:52.671Z,11.00
2023-04-21T20:00:38.244Z,11.00
2023-04-21T20:03:25.185Z,10.90
2023-04-21T20:06:11.528Z,10.90
2023-04-21T20:08:58.154Z,10.90
2023-04-21T20:11:43.882Z,10.90
2023-04-21T20:14:29.616Z,10.90
2023-04-21T20:17:15.116Z,10.90
2023-04-21T20:20:01.223Z,11.00
2023-04-21T20:22:48.061Z,11.00
2023-04-21T20:25:33.652Z,11.00
2023-04-21T20:28:22.728Z,11.00
2023-04-21T20:31:08.716Z,11.00
2023-04-21T20:33:56.672Z,11.00
2023-04-21T20:36:42.595Z,11.10
2023-04-21T20:39:28.101Z,11.10
2023-04-21T20:42:14.720Z,11.00
2023-04-21T20:45:02.229Z,11.10
2023-04-21T20:47:47.647Z,11.10
2023-04-21T20:50:33.244Z,11.10
2023-04-21T20:53:20.000Z,11.10
2023-04-21T20:56:05.714Z,11.10
2023-04-21T20:58:50.925Z,11.10
2023-04-21T21:01:39.908Z,11.20
2023-04-21T21:04:25.735Z,11.20
2023-04-21T21:07:13.990Z,11.30
2023-04-21T21:09:59.698Z,11.30
2023-04-21T21:12:44.799Z,11.30
2023-04-21T21:15:34.242Z,11.30
2023-04-21T21:18:19.510Z,11.30
2023-04-21T21:21:06.802Z,11.20
2023-04-21T21:23:52.218Z,11.10
2023-04-21T21:26:38.538Z,11.10
2023-04-21T21:29:27.416Z,11.00
2023-04-21T21:32:13.141Z,11.00
2023-04-21T21:34:59.884Z,10.90
2023-04-21T21:37:45.543Z,10.80
2023-04-21T21:40:30.684Z,10.80
2023-04-21T21:43:16.524Z,10.80
2023-04-21T21:46:02.449Z,10.80
2023-04-21T21:48:49.376Z,10.70
2023-04-21T21:51:35.004Z,10.70
2023-04-21T21:54:21.025Z,10.80
2023-04-21T21:57:06.583Z,10.70
2023-04-21T21:59:52.524Z,10.70
2023-04-21T22:02:38.128Z,10.70
2023-04-21T22:05:23.963Z,10.70
2023-04-21T22:08:09.297Z,10.70
2023-04-21T22:10:54.696Z,10.80
2023-04-21T22:13:40.667Z,10.80
2023-04-21T22:16:34.549Z,10.80
2023-04-21T22:19:20.426Z,10.90
2023-04-21T22:22:05.891Z,10.90
2023-04-21T22:24:51.428Z,11.00
2023-04-21T22:27:36.773Z,10.90
2023-04-21T22:30:24.077Z,10.90
2023-04-21T22:33:09.714Z,10.80
2023-04-21T22:35:55.688Z,10.70
2023-04-21T22:38:43.622Z,10.60
2023-04-21T22:41:28.921Z,10.40
2023-04-21T22:44:14.605Z,10.30
2023-04-21T22:47:00.613Z,10.20
2023-04-21T22:49:46.260Z,10.10
2023-04-21T22:52:31.696Z,10.10
2023-04-21T22:55:18.200Z,10.00
2023-04-21T22:58:03.849Z,10.00
2023-04-21T23:00:49.555Z,10.00
2023-04-21T23:03:35.214Z,9.90
2023-04-21T23:06:21.016Z,9.80
2023-04-21T23:09:06.569Z,9.80
2023-04-21T23:11:52.259Z,9.70
2023-04-21T23:14:37.859Z,9.60
2023-04-21T23:17:25.779Z,9.60
2023-04-21T23:20:11.839Z,9.50
2023-04-21T23:22:57.600Z,9.50
2023-04-21T23:25:43.122Z,9.40
2023-04-21T23:28:28.464Z,9.30
2023-04-21T23:31:14.365Z,9.20
2023-04-21T23:34:02.707Z,9.10
2023-04-21T23:36:48.212Z,9.10
2023-04-21T23:39:33.664Z,9.00
2023-04-21T23:42:19.130Z,9.00
2023-04-21T23:45:06.366Z,8.90
2023-04-21T23:47:51.822Z,8.80
2023-04-21T23:50:37.425Z,8.80
2023-04-21T23:53:22.806Z,8.80
2023-04-21T23:56:08.255Z,8.70
2023-04-21T23:58:55.418Z,8.70
